sensor_id;sensor_type;location;lat;lon;timestamp;temperature;humidity
9486;DHT22;4781;48.776;9.200;2022-12-29T00:00:49;9.70;99.90
9486;DHT22;4781;48.776;9.200;2022-12-29T00:03:18;9.70;99.90
9486;DHT22;4781;48.776;9.200;2022-12-29T00:05:53;9.70;99.90
9486;DHT22;4781;48.776;9.200;2022-12-29T00:08:25;9.70;99.90
9486;DHT22;4781;48.776;9.200;2022-12-29T00:11:13;9.70;99.90
9486;DHT22;4781;48.776;9.200;2022-12-29T00:13:41;9.80;99.90
9486;DHT22;4781;48.776;9.200;2022-12-29T00:16:28;9.80;99.90
9486;DHT22;4781;48.776;9.200;2022-12-29T00:18:58;9.80;99.90
9486;DHT22;4781;48.776;9.200;2022-12-29T00:21:27;9.90;99.90
9486;DHT22;4781;48.776;9.200;2022-12-29T00:24:17;9.90;99.90
9486;DHT22;4781;48.776;9.200;2022-12-29T00:26:53;10.00;99.90
9486;DHT22;4781;48.776;9.200;2022-12-29T00:29:39;10.20;99.90
9486;DHT22;4781;48.776;9.200;2022-12-29T00:32:25;10.10;99.90
9486;DHT22;4781;48.776;9.200;2022-12-29T00:35:13;10.10;99.90
9486;DHT22;4781;48.776;9.200;2022-12-29T00:37:46;10.20;99.90
9486;DHT22;4781;48.776;9.200;2022-12-29T00:40:32;10.20;99.90
9486;DHT22;4781;48.776;9.200;2022-12-29T00:43:18;10.30;99.90
9486;DHT22;4781;48.776;9.200;2022-12-29T00:46:04;10.30;99.90
9486;DHT22;4781;48.776;9.200;2022-12-29T00:48:33;10.40;99.90
9486;DHT22;4781;48.776;9.200;2022-12-29T00:51:21;10.50;99.90
9486;DHT22;4781;48.776;9.200;2022-12-29T00:53:50;10.50;99.90
9486;DHT22;4781;48.776;9.200;2022-12-29T00:56:18;10.60;99.90
9486;DHT22;4781;48.776;9.200;2022-12-29T00:58:47;10.60;99.90
9486;DHT22;4781;48.776;9.200;2022-12-29T01:01:15;10.70;99.90
9486;DHT22;4781;48.776;9.200;2022-12-29T01:03:43;10.70;99.90
9486;DHT22;4781;48.776;9.200;2022-12-29T01:06:12;10.80;99.90
9486;DHT22;4781;48.776;9.200;2022-12-29T01:08:40;10.80;99.90
9486;DHT22;4781;48.776;9.200;2022-12-29T01:11:11;10.80;99.90
9486;DHT22;4781;48.776;9.200;2022-12-29T01:13:40;10.70;99.90
9486;DHT22;4781;48.776;9.200;2022-12-29T01:16:10;10.70;99.90
9486;DHT22;4781;48.776;9.200;2022-12-29T01:18:38;10.70;99.90
9486;DHT22;4781;48.776;9.200;2022-12-29T01:21:07;10.70;99.90
9486;DHT22;4781;48.776;9.200;2022-12-29T01:23:35;10.80;99.90
9486;DHT22;4781;48.776;9.200;2022-12-29T01:26:14;10.80;99.90
9486;DHT22;4781;48.776;9.200;2022-12-29T01:28:44;10.80;99.90
9486;DHT22;4781;48.776;9.200;2022-12-29T01:31:14;10.80;99.90
9486;DHT22;4781;48.776;9.200;2022-12-29T01:33:43;10.80;99.90
9486;DHT22;4781;48.776;9.200;2022-12-29T01:36:14;10.80;99.90
9486;DHT22;4781;48.776;9.200;2022-12-29T01:38:44;10.80;99.90
9486;DHT22;4781;48.776;9.200;2022-12-29T01:41:14;10.80;99.90
9486;DHT22;4781;48.776;9.200;2022-12-29T01:43:49;10.80;99.90
9486;DHT22;4781;48.776;9.200;2022-12-29T01:49:02;10.80;99.90
9486;DHT22;4781;48.776;9.200;2022-12-29T01:51:40;10.80;99.90
9486;DHT22;4781;48.776;9.200;2022-12-29T01:54:18;10.70;99.90
9486;DHT22;4781;48.776;9.200;2022-12-29T01:56:50;10.70;99.90
9486;DHT22;4781;48.776;9.200;2022-12-29T01:59:22;10.70;99.90
9486;DHT22;4781;48.776;9.200;2022-12-29T02:01:52;10.70;99.90
9486;DHT22;4781;48.776;9.200;2022-12-29T02:04:22;10.70;99.90
9486;DHT22;4781;48.776;9.200;2022-12-29T02:06:55;10.70;99.90
9486;DHT22;4781;48.776;9.200;2022-12-29T02:09:25;10.70;99.90
9486;DHT22;4781;48.776;9.200;2022-12-29T02:11:53;10.70;99.90
9486;DHT22;4781;48.776;9.200;2022-12-29T02:14:21;10.70;99.90
9486;DHT22;4781;48.776;9.200;2022-12-29T02:23:24;10.70;99.90
9486;DHT22;4781;48.776;9.200;2022-12-29T02:26:28;10.70;99.90
9486;DHT22;4781;48.776;9.200;2022-12-29T02:35:29;10.70;99.90
9486;DHT22;4781;48.776;9.200;2022-12-29T02:40:53;10.80;99.90
9486;DHT22;4781;48.776;9.200;2022-12-29T02:43:37;10.80;99.90
9486;DHT22;4781;48.776;9.200;2022-12-29T02:46:10;10.90;99.90
9486;DHT22;4781;48.776;9.200;2022-12-29T02:49:12;10.90;99.90
9486;DHT22;4781;48.776;9.200;2022-12-29T02:51:58;10.90;99.90
9486;DHT22;4781;48.776;9.200;2022-12-29T02:54:28;10.90;99.90
9486;DHT22;4781;48.776;9.200;2022-12-29T02:59:45;10.90;99.90
9486;DHT22;4781;48.776;9.200;2022-12-29T03:08:28;11.10;99.90
9486;DHT22;4781;48.776;9.200;2022-12-29T03:11:03;11.10;99.90
9486;DHT22;4781;48.776;9.200;2022-12-29T03:13:49;11.20;99.90
9486;DHT22;4781;48.776;9.200;2022-12-29T03:16:55;11.10;99.90
9486;DHT22;4781;48.776;9.200;2022-12-29T03:19:26;11.10;99.90
9486;DHT22;4781;48.776;9.200;2022-12-29T03:22:17;11.00;99.90
9486;DHT22;4781;48.776;9.200;2022-12-29T03:27:50;11.10;99.90
9486;DHT22;4781;48.776;9.200;2022-12-29T03:30:21;11.20;99.90
9486;DHT22;4781;48.776;9.200;2022-12-29T03:32:54;11.20;99.90
9486;DHT22;4781;48.776;9.200;2022-12-29T03:35:27;11.30;99.90
9486;DHT22;4781;48.776;9.200;2022-12-29T03:37:58;11.30;99.90
9486;DHT22;4781;48.776;9.200;2022-12-29T03:40:54;11.30;99.90
9486;DHT22;4781;48.776;9.200;2022-12-29T03:43:18;11.30;99.90
9486;DHT22;4781;48.776;9.200;2022-12-29T03:45:46;11.30;99.90
9486;DHT22;4781;48.776;9.200;2022-12-29T03:48:15;11.30;99.90
9486;DHT22;4781;48.776;9.200;2022-12-29T03:50:43;11.50;99.90
9486;DHT22;4781;48.776;9.200;2022-12-29T03:53:12;11.40;99.90
9486;DHT22;4781;48.776;9.200;2022-12-29T03:55:40;11.40;99.90
9486;DHT22;4781;48.776;9.200;2022-12-29T03:58:09;11.40;99.90
9486;DHT22;4781;48.776;9.200;2022-12-29T04:00:37;11.60;99.90
9486;DHT22;4781;48.776;9.200;2022-12-29T04:03:06;11.50;99.90
9486;DHT22;4781;48.776;9.200;2022-12-29T04:05:34;11.50;99.90
9486;DHT22;4781;48.776;9.200;2022-12-29T04:08:03;11.60;99.90
9486;DHT22;4781;48.776;9.200;2022-12-29T04:10:31;11.50;99.90
9486;DHT22;4781;48.776;9.200;2022-12-29T04:12:59;11.50;99.90
9486;DHT22;4781;48.776;9.200;2022-12-29T04:15:28;11.40;99.90
9486;DHT22;4781;48.776;9.200;2022-12-29T04:17:56;11.40;99.90
9486;DHT22;4781;48.776;9.200;2022-12-29T04:20:25;11.30;99.90
9486;DHT22;4781;48.776;9.200;2022-12-29T04:23:11;11.40;99.90
9486;DHT22;4781;48.776;9.200;2022-12-29T04:25:39;11.30;99.90
9486;DHT22;4781;48.776;9.200;2022-12-29T04:28:07;11.30;99.90
9486;DHT22;4781;48.776;9.200;2022-12-29T04:30:36;11.30;99.90
9486;DHT22;4781;48.776;9.200;2022-12-29T04:33:04;11.30;99.90
9486;DHT22;4781;48.776;9.200;2022-12-29T04:35:33;11.30;99.90
9486;DHT22;4781;48.776;9.200;2022-12-29T04:38:01;11.30;99.90
9486;DHT22;4781;48.776;9.200;2022-12-29T04:40:30;11.30;99.90
9486;DHT22;4781;48.776;9.200;2022-12-29T04:42:58;11.30;99.90
9486;DHT22;4781;48.776;9.200;2022-12-29T04:45:27;11.30;99.90
9486;DHT22;4781;48.776;9.200;2022-12-29T04:47:55;11.30;99.90
9486;DHT22;4781;48.776;9.200;2022-12-29T04:50:23;11.30;99.90
9486;DHT22;4781;48.776;9.200;2022-12-29T04:52:52;11.30;99.90
9486;DHT22;4781;48.776;9.200;2022-12-29T04:55:20;11.40;99.90
9486;DHT22;4781;48.776;9.200;2022-12-29T04:57:49;11.40;99.90
9486;DHT22;4781;48.776;9.200;2022-12-29T05:00:18;11.40;99.90
9486;DHT22;4781;48.776;9.200;2022-12-29T05:02:46;11.40;99.90
9486;DHT22;4781;48.776;9.200;2022-12-29T05:05:15;11.50;99.90
9486;DHT22;4781;48.776;9.200;2022-12-29T05:07:43;11.50;99.90
9486;DHT22;4781;48.776;9.200;2022-12-29T05:10:12;11.50;99.90
9486;DHT22;4781;48.776;9.200;2022-12-29T05:12:40;11.40;99.90
9486;DHT22;4781;48.776;9.200;2022-12-29T05:15:10;11.50;99.90
9486;DHT22;4781;48.776;9.200;2022-12-29T05:17:38;11.50;99.90
9486;DHT22;4781;48.776;9.200;2022-12-29T05:20:08;11.50;99.90
9486;DHT22;4781;48.776;9.200;2022-12-29T05:22:36;11.50;99.90
9486;DHT22;4781;48.776;9.200;2022-12-29T05:25:05;11.50;99.90
9486;DHT22;4781;48.776;9.200;2022-12-29T05:27:33;11.50;99.90
9486;DHT22;4781;48.776;9.200;2022-12-29T05:30:02;11.50;99.90
9486;DHT22;4781;48.776;9.200;2022-12-29T05:32:31;11.40;99.90
9486;DHT22;4781;48.776;9.200;2022-12-29T05:34:59;11.40;99.90
9486;DHT22;4781;48.776;9.200;2022-12-29T05:37:28;11.40;99.90
9486;DHT22;4781;48.776;9.200;2022-12-29T05:39:56;11.40;99.90
9486;DHT22;4781;48.776;9.200;2022-12-29T05:42:25;11.40;99.90
9486;DHT22;4781;48.776;9.200;2022-12-29T05:44:54;11.40;99.90
9486;DHT22;4781;48.776;9.200;2022-12-29T05:47:22;11.40;99.90
9486;DHT22;4781;48.776;9.200;2022-12-29T05:49:51;11.30;99.90
9486;DHT22;4781;48.776;9.200;2022-12-29T05:52:19;11.40;99.90
9486;DHT22;4781;48.776;9.200;2022-12-29T05:54:47;11.30;99.90
9486;DHT22;4781;48.776;9.200;2022-12-29T05:57:16;11.40;99.90
9486;DHT22;4781;48.776;9.200;2022-12-29T05:59:44;11.40;99.90
9486;DHT22;4781;48.776;9.200;2022-12-29T06:02:16;11.40;99.90
9486;DHT22;4781;48.776;9.200;2022-12-29T06:04:45;11.40;99.90
9486;DHT22;4781;48.776;9.200;2022-12-29T06:07:13;11.40;99.90
9486;DHT22;4781;48.776;9.200;2022-12-29T06:09:42;11.40;99.90
9486;DHT22;4781;48.776;9.200;2022-12-29T06:12:10;11.40;99.90
9486;DHT22;4781;48.776;9.200;2022-12-29T06:14:38;11.40;99.90
9486;DHT22;4781;48.776;9.200;2022-12-29T06:17:07;11.40;99.90
9486;DHT22;4781;48.776;9.200;2022-12-29T06:19:36;11.40;99.90
9486;DHT22;4781;48.776;9.200;2022-12-29T06:22:04;11.40;99.90
9486;DHT22;4781;48.776;9.200;2022-12-29T06:24:34;11.40;99.90
9486;DHT22;4781;48.776;9.200;2022-12-29T06:27:02;11.40;99.90
9486;DHT22;4781;48.776;9.200;2022-12-29T06:29:30;11.30;99.90
9486;DHT22;4781;48.776;9.200;2022-12-29T06:31:59;11.30;99.90
9486;DHT22;4781;48.776;9.200;2022-12-29T06:34:27;11.20;99.90
9486;DHT22;4781;48.776;9.200;2022-12-29T06:36:56;11.20;99.90
9486;DHT22;4781;48.776;9.200;2022-12-29T06:39:24;11.20;99.90
9486;DHT22;4781;48.776;9.200;2022-12-29T06:41:54;11.10;99.90
9486;DHT22;4781;48.776;9.200;2022-12-29T06:44:23;11.00;99.90
9486;DHT22;4781;48.776;9.200;2022-12-29T06:46:51;11.10;99.90
9486;DHT22;4781;48.776;9.200;2022-12-29T06:49:19;11.10;99.90
9486;DHT22;4781;48.776;9.200;2022-12-29T06:51:48;11.10;99.90
9486;DHT22;4781;48.776;9.200;2022-12-29T06:54:16;11.20;99.90
9486;DHT22;4781;48.776;9.200;2022-12-29T06:56:45;11.10;99.90
9486;DHT22;4781;48.776;9.200;2022-12-29T06:59:13;11.10;99.90
9486;DHT22;4781;48.776;9.200;2022-12-29T07:01:41;11.10;99.90
9486;DHT22;4781;48.776;9.200;2022-12-29T07:04:10;11.00;99.90
9486;DHT22;4781;48.776;9.200;2022-12-29T07:06:38;11.00;99.90
9486;DHT22;4781;48.776;9.200;2022-12-29T07:09:07;10.90;99.90
9486;DHT22;4781;48.776;9.200;2022-12-29T07:11:36;10.90;99.90
9486;DHT22;4781;48.776;9.200;2022-12-29T07:14:04;10.80;99.90
9486;DHT22;4781;48.776;9.200;2022-12-29T07:16:33;10.80;99.90
9486;DHT22;4781;48.776;9.200;2022-12-29T07:19:01;10.80;99.90
9486;DHT22;4781;48.776;9.200;2022-12-29T07:21:30;10.80;99.90
9486;DHT22;4781;48.776;9.200;2022-12-29T07:23:58;10.70;99.90
9486;DHT22;4781;48.776;9.200;2022-12-29T07:26:27;10.70;99.90
9486;DHT22;4781;48.776;9.200;2022-12-29T07:28:55;10.70;99.90
9486;DHT22;4781;48.776;9.200;2022-12-29T07:31:24;10.70;99.90
9486;DHT22;4781;48.776;9.200;2022-12-29T07:33:52;10.70;99.90
9486;DHT22;4781;48.776;9.200;2022-12-29T07:36:21;10.70;99.90
9486;DHT22;4781;48.776;9.200;2022-12-29T07:38:50;10.70;99.90
9486;DHT22;4781;48.776;9.200;2022-12-29T07:41:18;10.70;99.90
9486;DHT22;4781;48.776;9.200;2022-12-29T07:43:49;10.80;99.90
9486;DHT22;4781;48.776;9.200;2022-12-29T07:46:18;10.80;99.90
9486;DHT22;4781;48.776;9.200;2022-12-29T07:48:46;10.80;99.90
9486;DHT22;4781;48.776;9.200;2022-12-29T07:51:15;10.80;99.90
9486;DHT22;4781;48.776;9.200;2022-12-29T07:53:43;10.80;99.90
9486;DHT22;4781;48.776;9.200;2022-12-29T07:56:11;10.90;99.90
9486;DHT22;4781;48.776;9.200;2022-12-29T07:58:41;10.90;99.90
9486;DHT22;4781;48.776;9.200;2022-12-29T08:01:09;11.00;99.90
9486;DHT22;4781;48.776;9.200;2022-12-29T08:03:38;11.00;99.90
9486;DHT22;4781;48.776;9.200;2022-12-29T08:06:09;10.90;99.90
9486;DHT22;4781;48.776;9.200;2022-12-29T08:08:38;11.00;99.90
9486;DHT22;4781;48.776;9.200;2022-12-29T08:11:06;11.00;99.90
9486;DHT22;4781;48.776;9.200;2022-12-29T08:13:35;11.00;99.90
9486;DHT22;4781;48.776;9.200;2022-12-29T08:16:03;11.00;99.90
9486;DHT22;4781;48.776;9.200;2022-12-29T08:18:32;11.10;99.90
9486;DHT22;4781;48.776;9.200;2022-12-29T08:21:04;11.10;99.90
9486;DHT22;4781;48.776;9.200;2022-12-29T08:23:33;11.20;99.90
9486;DHT22;4781;48.776;9.200;2022-12-29T08:26:04;11.20;99.90
9486;DHT22;4781;48.776;9.200;2022-12-29T08:28:33;11.20;99.90
9486;DHT22;4781;48.776;9.200;2022-12-29T08:31:02;11.20;99.90
9486;DHT22;4781;48.776;9.200;2022-12-29T08:33:31;11.20;99.90
9486;DHT22;4781;48.776;9.200;2022-12-29T08:36:03;11.20;99.90
9486;DHT22;4781;48.776;9.200;2022-12-29T08:38:33;11.30;99.90
9486;DHT22;4781;48.776;9.200;2022-12-29T08:41:02;11.30;99.90
9486;DHT22;4781;48.776;9.200;2022-12-29T08:43:30;11.30;99.90
9486;DHT22;4781;48.776;9.200;2022-12-29T08:45:59;11.30;99.90
9486;DHT22;4781;48.776;9.200;2022-12-29T08:48:28;11.30;99.90
9486;DHT22;4781;48.776;9.200;2022-12-29T08:50:56;11.40;99.90
9486;DHT22;4781;48.776;9.200;2022-12-29T08:53:25;11.40;99.90
9486;DHT22;4781;48.776;9.200;2022-12-29T08:55:58;11.40;99.90
9486;DHT22;4781;48.776;9.200;2022-12-29T08:58:28;11.50;99.90
9486;DHT22;4781;48.776;9.200;2022-12-29T09:00:57;11.50;99.90
9486;DHT22;4781;48.776;9.200;2022-12-29T09:03:26;11.50;99.90
9486;DHT22;4781;48.776;9.200;2022-12-29T09:05:55;11.60;99.90
9486;DHT22;4781;48.776;9.200;2022-12-29T09:08:24;11.60;99.90
9486;DHT22;4781;48.776;9.200;2022-12-29T09:10:52;11.60;99.90
9486;DHT22;4781;48.776;9.200;2022-12-29T09:13:21;11.60;99.90
9486;DHT22;4781;48.776;9.200;2022-12-29T09:15:57;11.70;99.90
9486;DHT22;4781;48.776;9.200;2022-12-29T09:18:22;11.70;99.90
9486;DHT22;4781;48.776;9.200;2022-12-29T09:20:56;11.80;99.90
9486;DHT22;4781;48.776;9.200;2022-12-29T09:23:26;11.80;99.90
9486;DHT22;4781;48.776;9.200;2022-12-29T09:25:54;11.90;99.90
9486;DHT22;4781;48.776;9.200;2022-12-29T09:28:23;11.90;99.90
9486;DHT22;4781;48.776;9.200;2022-12-29T09:30:52;12.00;99.90
9486;DHT22;4781;48.776;9.200;2022-12-29T09:33:20;12.00;99.90
9486;DHT22;4781;48.776;9.200;2022-12-29T09:35:54;12.10;99.90
9486;DHT22;4781;48.776;9.200;2022-12-29T09:38:25;12.10;99.90
9486;DHT22;4781;48.776;9.200;2022-12-29T09:41:05;12.10;99.90
9486;DHT22;4781;48.776;9.200;2022-12-29T09:43:51;12.10;99.90
9486;DHT22;4781;48.776;9.200;2022-12-29T09:46:27;12.20;99.90
9486;DHT22;4781;48.776;9.200;2022-12-29T09:49:07;12.20;99.90
9486;DHT22;4781;48.776;9.200;2022-12-29T09:51:48;12.20;99.90
9486;DHT22;4781;48.776;9.200;2022-12-29T09:54:38;12.30;99.90
9486;DHT22;4781;48.776;9.200;2022-12-29T09:57:24;12.30;99.90
9486;DHT22;4781;48.776;9.200;2022-12-29T09:59:52;12.40;99.90
9486;DHT22;4781;48.776;9.200;2022-12-29T10:02:46;12.50;99.90
9486;DHT22;4781;48.776;9.200;2022-12-29T10:10:59;12.60;99.90
9486;DHT22;4781;48.776;9.200;2022-12-29T10:17:02;12.60;99.90
9486;DHT22;4781;48.776;9.200;2022-12-29T10:25:55;12.60;99.90
9486;DHT22;4781;48.776;9.200;2022-12-29T10:28:37;12.70;99.90
9486;DHT22;4781;48.776;9.200;2022-12-29T10:31:20;12.70;99.90
9486;DHT22;4781;48.776;9.200;2022-12-29T10:33:49;12.70;99.90
9486;DHT22;4781;48.776;9.200;2022-12-29T10:36:24;12.70;99.90
9486;DHT22;4781;48.776;9.200;2022-12-29T10:42:11;12.80;99.90
9486;DHT22;4781;48.776;9.200;2022-12-29T10:44:50;12.90;99.90
9486;DHT22;4781;48.776;9.200;2022-12-29T10:47:21;13.10;99.90
9486;DHT22;4781;48.776;9.200;2022-12-29T10:49:54;13.40;99.90
9486;DHT22;4781;48.776;9.200;2022-12-29T10:52:25;13.60;99.90
9486;DHT22;4781;48.776;9.200;2022-12-29T10:54:58;13.70;99.90
9486;DHT22;4781;48.776;9.200;2022-12-29T10:57:39;14.40;99.90
9486;DHT22;4781;48.776;9.200;2022-12-29T11:00:15;15.00;99.90
9486;DHT22;4781;48.776;9.200;2022-12-29T11:11:45;14.70;99.90
9486;DHT22;4781;48.776;9.200;2022-12-29T11:14:17;14.50;99.90
9486;DHT22;4781;48.776;9.200;2022-12-29T11:17:03;14.30;99.90
9486;DHT22;4781;48.776;9.200;2022-12-29T11:19:33;14.20;99.90
9486;DHT22;4781;48.776;9.200;2022-12-29T11:22:22;14.00;99.90
9486;DHT22;4781;48.776;9.200;2022-12-29T11:24:47;14.00;99.90
9486;DHT22;4781;48.776;9.200;2022-12-29T11:27:19;13.90;99.90
9486;DHT22;4781;48.776;9.200;2022-12-29T11:29:52;13.80;99.90
9486;DHT22;4781;48.776;9.200;2022-12-29T11:32:28;13.70;99.90
9486;DHT22;4781;48.776;9.200;2022-12-29T11:34:58;13.70;99.90
9486;DHT22;4781;48.776;9.200;2022-12-29T11:37:32;13.60;99.90
9486;DHT22;4781;48.776;9.200;2022-12-29T11:40:19;13.70;99.90
9486;DHT22;4781;48.776;9.200;2022-12-29T11:42:52;13.60;99.90
9486;DHT22;4781;48.776;9.200;2022-12-29T11:45:24;13.60;99.90
9486;DHT22;4781;48.776;9.200;2022-12-29T11:48:10;13.50;99.90
9486;DHT22;4781;48.776;9.200;2022-12-29T11:50:55;13.40;99.90
9486;DHT22;4781;48.776;9.200;2022-12-29T11:53:23;13.40;99.90
9486;DHT22;4781;48.776;9.200;2022-12-29T11:56:02;13.10;99.90
9486;DHT22;4781;48.776;9.200;2022-12-29T11:58:37;13.10;99.90
9486;DHT22;4781;48.776;9.200;2022-12-29T12:01:12;13.10;99.90
9486;DHT22;4781;48.776;9.200;2022-12-29T12:03:47;13.00;99.90
9486;DHT22;4781;48.776;9.200;2022-12-29T12:06:19;12.90;99.90
9486;DHT22;4781;48.776;9.200;2022-12-29T12:08:53;12.90;99.90
9486;DHT22;4781;48.776;9.200;2022-12-29T12:11:36;12.80;99.90
9486;DHT22;4781;48.776;9.200;2022-12-29T12:14:29;12.80;99.90
9486;DHT22;4781;48.776;9.200;2022-12-29T12:17:11;12.80;99.90
9486;DHT22;4781;48.776;9.200;2022-12-29T12:19:49;12.70;99.90
9486;DHT22;4781;48.776;9.200;2022-12-29T12:25:25;12.60;99.90
9486;DHT22;4781;48.776;9.200;2022-12-29T12:28:00;12.60;99.90
9486;DHT22;4781;48.776;9.200;2022-12-29T12:30:50;12.60;99.90
9486;DHT22;4781;48.776;9.200;2022-12-29T12:33:38;12.70;99.90
9486;DHT22;4781;48.776;9.200;2022-12-29T12:36:26;12.70;99.90
9486;DHT22;4781;48.776;9.200;2022-12-29T12:42:23;12.70;99.90
9486;DHT22;4781;48.776;9.200;2022-12-29T12:45:05;12.70;99.90
9486;DHT22;4781;48.776;9.200;2022-12-29T12:50:55;12.50;99.90
9486;DHT22;4781;48.776;9.200;2022-12-29T12:54:05;12.40;99.90
9486;DHT22;4781;48.776;9.200;2022-12-29T12:59:48;12.30;99.90
9486;DHT22;4781;48.776;9.200;2022-12-29T13:05:10;12.30;99.90
9486;DHT22;4781;48.776;9.200;2022-12-29T13:11:34;12.40;99.90
9486;DHT22;4781;48.776;9.200;2022-12-29T13:14:08;12.40;99.90
9486;DHT22;4781;48.776;9.200;2022-12-29T13:16:56;12.40;99.90
9486;DHT22;4781;48.776;9.200;2022-12-29T13:28:31;12.50;99.90
9486;DHT22;4781;48.776;9.200;2022-12-29T13:33:53;12.40;99.90
9486;DHT22;4781;48.776;9.200;2022-12-29T13:36:44;12.40;99.90
9486;DHT22;4781;48.776;9.200;2022-12-29T13:39:21;12.40;99.90
9486;DHT22;4781;48.776;9.200;2022-12-29T13:41:54;12.30;99.90
9486;DHT22;4781;48.776;9.200;2022-12-29T13:44:39;12.30;99.90
9486;DHT22;4781;48.776;9.200;2022-12-29T13:47:39;12.30;99.90
9486;DHT22;4781;48.776;9.200;2022-12-29T13:50:15;12.30;99.90
9486;DHT22;4781;48.776;9.200;2022-12-29T13:53:08;12.30;99.90
9486;DHT22;4781;48.776;9.200;2022-12-29T13:55:54;12.30;99.90
9486;DHT22;4781;48.776;9.200;2022-12-29T13:58:54;12.20;99.90
9486;DHT22;4781;48.776;9.200;2022-12-29T14:01:32;12.20;99.90
9486;DHT22;4781;48.776;9.200;2022-12-29T14:04:09;12.20;99.90
9486;DHT22;4781;48.776;9.200;2022-12-29T14:06:38;12.10;99.90
9486;DHT22;4781;48.776;9.200;2022-12-29T14:12:26;12.20;99.90
9486;DHT22;4781;48.776;9.200;2022-12-29T14:14:50;12.20;99.90
9486;DHT22;4781;48.776;9.200;2022-12-29T14:17:20;12.20;99.90
9486;DHT22;4781;48.776;9.200;2022-12-29T14:19:51;12.20;99.90
9486;DHT22;4781;48.776;9.200;2022-12-29T14:22:25;12.20;99.90
9486;DHT22;4781;48.776;9.200;2022-12-29T14:24:54;12.20;99.90
9486;DHT22;4781;48.776;9.200;2022-12-29T14:29:59;12.10;99.90
9486;DHT22;4781;48.776;9.200;2022-12-29T14:38:19;12.10;99.90
9486;DHT22;4781;48.776;9.200;2022-12-29T14:40:51;12.10;99.90
9486;DHT22;4781;48.776;9.200;2022-12-29T14:43:25;12.10;99.90
9486;DHT22;4781;48.776;9.200;2022-12-29T14:45:58;12.10;99.90
9486;DHT22;4781;48.776;9.200;2022-12-29T14:48:31;12.00;99.90
9486;DHT22;4781;48.776;9.200;2022-12-29T14:57:39;12.00;99.90
9486;DHT22;4781;48.776;9.200;2022-12-29T15:00:15;12.00;99.90
9486;DHT22;4781;48.776;9.200;2022-12-29T15:03:06;12.00;99.90
9486;DHT22;4781;48.776;9.200;2022-12-29T15:06:06;11.90;99.90
9486;DHT22;4781;48.776;9.200;2022-12-29T15:11:23;11.90;99.90
9486;DHT22;4781;48.776;9.200;2022-12-29T15:13:54;11.90;99.90
9486;DHT22;4781;48.776;9.200;2022-12-29T15:18:57;11.80;99.90
9486;DHT22;4781;48.776;9.200;2022-12-29T15:21:34;11.80;99.90
9486;DHT22;4781;48.776;9.200;2022-12-29T15:24:04;11.80;99.90
9486;DHT22;4781;48.776;9.200;2022-12-29T15:26:41;11.80;99.90
9486;DHT22;4781;48.776;9.200;2022-12-29T15:29:36;11.80;99.90
9486;DHT22;4781;48.776;9.200;2022-12-29T15:34:50;11.80;99.90
9486;DHT22;4781;48.776;9.200;2022-12-29T15:37:37;11.80;99.90
9486;DHT22;4781;48.776;9.200;2022-12-29T15:40:02;11.80;99.90
9486;DHT22;4781;48.776;9.200;2022-12-29T15:45:19;11.80;99.90
9486;DHT22;4781;48.776;9.200;2022-12-29T15:47:49;11.80;99.90
9486;DHT22;4781;48.776;9.200;2022-12-29T15:56:00;11.80;99.90
9486;DHT22;4781;48.776;9.200;2022-12-29T15:58:31;11.80;99.90
9486;DHT22;4781;48.776;9.200;2022-12-29T16:01:02;11.80;99.90
9486;DHT22;4781;48.776;9.200;2022-12-29T16:03:36;11.80;99.90
9486;DHT22;4781;48.776;9.200;2022-12-29T16:06:25;11.80;99.90
9486;DHT22;4781;48.776;9.200;2022-12-29T16:09:03;11.60;99.90
9486;DHT22;4781;48.776;9.200;2022-12-29T16:11:39;11.40;99.90
9486;DHT22;4781;48.776;9.200;2022-12-29T16:14:19;11.30;99.90
9486;DHT22;4781;48.776;9.200;2022-12-29T16:16:49;11.10;99.90
9486;DHT22;4781;48.776;9.200;2022-12-29T16:19:40;10.90;99.90
9486;DHT22;4781;48.776;9.200;2022-12-29T16:22:10;10.90;99.90
9486;DHT22;4781;48.776;9.200;2022-12-29T16:24:46;11.00;99.90
9486;DHT22;4781;48.776;9.200;2022-12-29T16:27:25;10.80;99.90
9486;DHT22;4781;48.776;9.200;2022-12-29T16:29:57;10.80;99.90
9486;DHT22;4781;48.776;9.200;2022-12-29T16:32:28;10.70;99.90
9486;DHT22;4781;48.776;9.200;2022-12-29T16:35:18;10.60;99.90
9486;DHT22;4781;48.776;9.200;2022-12-29T16:37:48;10.60;99.90
9486;DHT22;4781;48.776;9.200;2022-12-29T16:43:30;10.50;99.90
9486;DHT22;4781;48.776;9.200;2022-12-29T16:46:21;10.50;99.90
9486;DHT22;4781;48.776;9.200;2022-12-29T16:48:56;10.40;99.90
9486;DHT22;4781;48.776;9.200;2022-12-29T16:51:33;10.50;99.90
9486;DHT22;4781;48.776;9.200;2022-12-29T16:54:04;10.40;99.90
9486;DHT22;4781;48.776;9.200;2022-12-29T16:56:35;10.40;99.90
9486;DHT22;4781;48.776;9.200;2022-12-29T17:02:10;10.40;99.90
9486;DHT22;4781;48.776;9.200;2022-12-29T17:04:43;10.50;99.90
9486;DHT22;4781;48.776;9.200;2022-12-29T17:07:18;10.50;99.90
9486;DHT22;4781;48.776;9.200;2022-12-29T17:09:48;10.40;99.90
9486;DHT22;4781;48.776;9.200;2022-12-29T17:12:19;10.30;99.90
9486;DHT22;4781;48.776;9.200;2022-12-29T17:15:25;10.30;99.90
9486;DHT22;4781;48.776;9.200;2022-12-29T17:17:56;10.20;99.90
9486;DHT22;4781;48.776;9.200;2022-12-29T17:20:27;10.30;99.90
9486;DHT22;4781;48.776;9.200;2022-12-29T17:22:58;10.30;99.90
9486;DHT22;4781;48.776;9.200;2022-12-29T17:25:29;10.30;99.90
9486;DHT22;4781;48.776;9.200;2022-12-29T17:28:05;10.20;99.90
9486;DHT22;4781;48.776;9.200;2022-12-29T17:30:35;10.10;99.90
9486;DHT22;4781;48.776;9.200;2022-12-29T17:33:06;10.00;99.90
9486;DHT22;4781;48.776;9.200;2022-12-29T17:35:37;10.10;99.90
9486;DHT22;4781;48.776;9.200;2022-12-29T17:38:19;10.10;99.90
9486;DHT22;4781;48.776;9.200;2022-12-29T17:40:50;10.10;99.90
9486;DHT22;4781;48.776;9.200;2022-12-29T17:43:18;10.20;99.90
9486;DHT22;4781;48.776;9.200;2022-12-29T17:45:52;10.00;99.90
9486;DHT22;4781;48.776;9.200;2022-12-29T17:48:22;10.00;99.90
9486;DHT22;4781;48.776;9.200;2022-12-29T17:50:53;10.00;99.90
9486;DHT22;4781;48.776;9.200;2022-12-29T17:53:24;10.00;99.90
9486;DHT22;4781;48.776;9.200;2022-12-29T17:55:54;10.00;99.90
9486;DHT22;4781;48.776;9.200;2022-12-29T17:58:28;10.00;99.90
9486;DHT22;4781;48.776;9.200;2022-12-29T18:01:00;10.00;99.90
9486;DHT22;4781;48.776;9.200;2022-12-29T18:03:32;10.00;99.90
9486;DHT22;4781;48.776;9.200;2022-12-29T18:06:03;10.00;99.90
9486;DHT22;4781;48.776;9.200;2022-12-29T18:08:37;9.90;99.90
9486;DHT22;4781;48.776;9.200;2022-12-29T18:11:20;9.90;99.90
9486;DHT22;4781;48.776;9.200;2022-12-29T18:13:52;9.90;99.90
9486;DHT22;4781;48.776;9.200;2022-12-29T18:16:21;9.90;99.90
9486;DHT22;4781;48.776;9.200;2022-12-29T18:18:50;10.00;99.90
9486;DHT22;4781;48.776;9.200;2022-12-29T18:21:20;9.90;99.90
9486;DHT22;4781;48.776;9.200;2022-12-29T18:23:51;9.90;99.90
9486;DHT22;4781;48.776;9.200;2022-12-29T18:26:25;9.90;99.90
9486;DHT22;4781;48.776;9.200;2022-12-29T18:28:59;9.80;99.90
9486;DHT22;4781;48.776;9.200;2022-12-29T18:31:29;9.80;99.90
9486;DHT22;4781;48.776;9.200;2022-12-29T18:34:00;9.70;99.90
9486;DHT22;4781;48.776;9.200;2022-12-29T18:36:31;9.50;99.90
9486;DHT22;4781;48.776;9.200;2022-12-29T18:38:59;9.30;99.90
9486;DHT22;4781;48.776;9.200;2022-12-29T18:41:28;9.20;99.90
9486;DHT22;4781;48.776;9.200;2022-12-29T18:43:57;9.20;99.90
9486;DHT22;4781;48.776;9.200;2022-12-29T18:46:26;9.30;99.90
9486;DHT22;4781;48.776;9.200;2022-12-29T18:48:55;9.20;99.90
9486;DHT22;4781;48.776;9.200;2022-12-29T18:51:24;9.20;99.90